createdAt,value
2018-12-14T00:00:13.159Z,99.99
2018-12-14T00:01:13.224Z,99.99
2018-12-14T00:02:13.283Z,99.99
2018-12-14T00:03:13.321Z,99.99
2018-12-14T00:04:13.357Z,99.99
2018-12-14T00:05:13.403Z,99.99
2018-12-14T00:06:13.428Z,99.99
2018-12-14T00:07:13.562Z,99.99
2018-12-14T00:08:13.523Z,99.99
2018-12-14T00:09:13.567Z,99.79
2018-12-14T00:10:13.647Z,99.99
2018-12-14T00:11:13.673Z,99.99
2018-12-14T00:12:13.730Z,99.40
2018-12-14T00:13:13.781Z,99.21
2018-12-14T00:14:13.805Z,98.78
2018-12-14T00:15:13.929Z,97.81
2018-12-14T00:16:13.902Z,97.24
2018-12-14T00:17:13.951Z,97.33
2018-12-14T00:18:14.022Z,96.94
2018-12-14T00:19:14.060Z,96.08
2018-12-14T00:20:14.089Z,97.42
2018-12-14T00:21:14.166Z,95.50
2018-12-14T00:22:14.212Z,95.79
2018-12-14T00:23:14.287Z,95.98
2018-12-14T00:24:14.299Z,97.62
2018-12-14T00:25:14.363Z,96.75
2018-12-14T00:26:14.442Z,99.35
2018-12-14T00:27:14.435Z,98.29
2018-12-14T00:28:14.483Z,98.10
2018-12-14T00:29:14.552Z,96.75
2018-12-14T00:30:14.571Z,96.56
2018-12-14T00:31:14.637Z,95.69
2018-12-14T00:32:14.702Z,95.21
2018-12-14T00:33:14.731Z,94.24
2018-12-14T00:34:14.777Z,94.10
2018-12-14T00:35:14.810Z,93.23
2018-12-14T00:36:14.852Z,93.23
2018-12-14T00:37:14.918Z,92.75
2018-12-14T00:38:14.963Z,92.65
2018-12-14T00:39:15.037Z,92.27
2018-12-14T00:40:15.051Z,93.13
2018-12-14T00:41:15.183Z,93.13
2018-12-14T00:42:15.127Z,92.56
2018-12-14T00:43:15.206Z,92.17
2018-12-14T00:44:15.251Z,91.50
2018-12-14T00:45:15.327Z,91.02
2018-12-14T00:46:15.354Z,90.72
2018-12-14T00:47:15.399Z,90.92
2018-12-14T00:48:15.428Z,91.88
2018-12-14T00:49:15.492Z,95.06
2018-12-14T00:50:15.536Z,93.91
2018-12-14T00:51:15.575Z,93.52
2018-12-14T00:52:15.647Z,92.85
2018-12-14T00:53:15.681Z,94.58
2018-12-14T00:54:15.733Z,93.81
2018-12-14T00:55:15.800Z,93.81
2018-12-14T00:56:15.834Z,93.04
2018-12-14T00:57:15.877Z,93.13
2018-12-14T00:58:15.951Z,93.13
2018-12-14T00:59:15.970Z,92.36
2018-12-14T01:00:16.010Z,92.08
2018-12-14T01:01:16.056Z,91.40
2018-12-14T01:02:16.100Z,93.33
2018-12-14T01:03:16.213Z,93.23
2018-12-14T01:04:16.207Z,93.43
2018-12-14T01:05:16.270Z,92.85
2018-12-14T01:06:16.285Z,92.65
2018-12-14T01:07:16.349Z,91.98
2018-12-14T01:08:16.383Z,91.78
2018-12-14T01:09:16.425Z,91.50
2018-12-14T01:10:16.455Z,90.92
2018-12-14T01:11:16.541Z,90.72
2018-12-14T01:12:16.595Z,90.24
2018-12-14T01:13:16.603Z,90.15
2018-12-14T01:14:16.664Z,89.18
2018-12-14T01:15:16.704Z,89.14
2018-12-14T01:16:16.762Z,88.60
2018-12-14T01:17:16.803Z,88.70
2018-12-14T01:18:16.882Z,88.41
2018-12-14T01:19:16.912Z,87.45
2018-12-14T01:20:17.001Z,87.54
2018-12-14T01:21:17.003Z,87.74
2018-12-14T01:22:17.057Z,86.87
2018-12-14T01:23:17.113Z,87.06
2018-12-14T01:24:17.149Z,86.39
2018-12-14T01:25:17.191Z,87.02
2018-12-14T01:26:17.248Z,87.16
2018-12-14T01:27:17.307Z,87.35
2018-12-14T01:28:17.344Z,87.54
2018-12-14T01:29:17.419Z,87.45
2018-12-14T01:30:17.433Z,90.15
2018-12-14T01:31:17.486Z,93.13
2018-12-14T01:32:17.535Z,93.91
2018-12-14T01:33:17.585Z,94.48
2018-12-14T01:34:17.602Z,95.06
2018-12-14T01:35:17.651Z,96.12
2018-12-14T01:36:17.690Z,96.32
2018-12-14T01:37:17.756Z,97.09
2018-12-14T01:38:17.810Z,96.80
2018-12-14T01:39:17.841Z,96.32
2018-12-14T01:40:17.896Z,96.94
2018-12-14T01:41:17.940Z,97.04
2018-12-14T01:42:17.991Z,97.62
2018-12-14T01:43:18.032Z,98.10
2018-12-14T01:44:18.078Z,96.84
2018-12-14T01:45:18.148Z,96.94
2018-12-14T01:46:18.205Z,96.84
2018-12-14T01:47:18.218Z,95.98
2018-12-14T01:48:18.275Z,95.31
2018-12-14T01:49:18.353Z,95.11
2018-12-14T01:50:18.363Z,94.48
2018-12-14T01:51:18.411Z,93.04
2018-12-14T01:52:18.480Z,93.33
2018-12-14T01:53:18.479Z,92.36
2018-12-14T01:54:18.576Z,91.88
2018-12-14T01:55:18.576Z,92.27
2018-12-14T01:56:18.651Z,91.40
2018-12-14T01:57:18.688Z,91.50
2018-12-14T01:58:18.775Z,90.53
2018-12-14T01:59:18.798Z,90.53
2018-12-14T02:00:18.820Z,90.72
2018-12-14T02:01:18.876Z,90.82
2018-12-14T02:02:18.915Z,90.53
2018-12-14T02:03:18.966Z,90.15
2018-12-14T02:04:19.000Z,89.76
2018-12-14T02:05:19.139Z,89.57
2018-12-14T02:06:19.129Z,90.24
2018-12-14T02:07:19.156Z,89.37
2018-12-14T02:08:19.183Z,89.28
2018-12-14T02:09:19.249Z,88.99
2018-12-14T02:10:19.325Z,88.79
2018-12-14T02:11:19.362Z,88.22
2018-12-14T02:12:19.379Z,87.16
2018-12-14T02:13:19.452Z,87.35
2018-12-14T02:14:19.477Z,87.16
2018-12-14T02:15:19.529Z,86.58
2018-12-14T02:16:19.692Z,86.10
2018-12-14T02:17:19.645Z,86.87
2018-12-14T02:18:19.674Z,87.54
2018-12-14T02:19:19.802Z,87.54
2018-12-14T02:20:19.865Z,87.35
2018-12-14T02:21:19.856Z,87.74
2018-12-14T02:22:20.003Z,88.41
2018-12-14T02:23:19.902Z,88.31
2018-12-14T02:24:19.979Z,88.89
2018-12-14T02:25:19.983Z,88.55
2018-12-14T02:26:20.095Z,88.89
2018-12-14T02:27:20.086Z,89.37
2018-12-14T02:28:20.218Z,89.28
2018-12-14T02:29:20.234Z,88.79
2018-12-14T02:30:20.274Z,89.37
2018-12-14T02:31:20.370Z,88.99
2018-12-14T02:32:20.309Z,90.24
2018-12-14T02:33:20.474Z,90.24
2018-12-14T02:34:20.457Z,90.44
2018-12-14T02:35:20.474Z,89.76
2018-12-14T02:36:20.606Z,90.34
2018-12-14T02:37:20.566Z,89.86
2018-12-14T02:38:20.656Z,90.24
2018-12-14T02:39:20.634Z,89.86
2018-12-14T02:40:20.690Z,89.95
2018-12-14T02:41:20.787Z,89.47
2018-12-14T02:42:20.782Z,88.70
2018-12-14T02:43:20.826Z,88.51
2018-12-14T02:44:20.874Z,87.74
2018-12-14T02:45:20.931Z,88.31
2018-12-14T02:46:20.969Z,88.12
2018-12-14T02:47:20.991Z,88.70
2018-12-14T02:48:21.073Z,90.34
2018-12-14T02:49:21.158Z,91.30
2018-12-14T02:50:21.152Z,92.85
2018-12-14T02:51:21.224Z,93.04
2018-12-14T02:52:21.264Z,93.37
2018-12-14T02:53:21.284Z,93.81
2018-12-14T02:54:21.342Z,93.13
2018-12-14T02:55:21.406Z,92.56
2018-12-14T02:56:21.472Z,93.13
2018-12-14T02:57:21.499Z,92.65
2018-12-14T02:58:21.573Z,93.13
2018-12-14T02:59:21.620Z,92.17
2018-12-14T03:00:21.625Z,92.36
2018-12-14T03:01:21.666Z,91.88
2018-12-14T03:02:21.780Z,91.11
2018-12-14T03:03:21.741Z,92.08
2018-12-14T03:04:21.808Z,91.88
2018-12-14T03:05:21.861Z,92.17
2018-12-14T03:06:21.898Z,92.08
2018-12-14T03:07:21.948Z,91.98
2018-12-14T03:08:21.979Z,93.13
2018-12-14T03:09:22.039Z,93.43
2018-12-14T03:10:22.079Z,93.13
2018-12-14T03:11:22.131Z,93.23
2018-12-14T03:12:26.692Z,93.43
2018-12-14T03:13:22.272Z,93.52
2018-12-14T03:14:22.260Z,94.58
2018-12-14T03:15:22.365Z,95.54
2018-12-14T03:16:22.415Z,94.68
2018-12-14T03:17:22.449Z,94.48
2018-12-14T03:18:22.448Z,93.13
2018-12-14T03:19:22.511Z,92.85
2018-12-14T03:20:22.545Z,92.56
2018-12-14T03:21:22.590Z,93.04
2018-12-14T03:22:22.658Z,92.99
2018-12-14T03:23:22.736Z,92.85
2018-12-14T03:24:22.743Z,92.17
2018-12-14T03:25:22.816Z,92.27
2018-12-14T03:26:22.826Z,92.65
2018-12-14T03:27:22.878Z,92.36
2018-12-14T03:28:22.910Z,93.19
2018-12-14T03:29:23.021Z,92.51
2018-12-14T03:30:23.017Z,94.15
2018-12-14T03:31:23.113Z,93.76
2018-12-14T03:32:23.088Z,93.28
2018-12-14T03:33:23.164Z,93.38
2018-12-14T03:34:23.214Z,92.71
2018-12-14T03:35:23.254Z,93.09
2018-12-14T03:36:23.304Z,94.63
2018-12-14T03:37:23.326Z,93.66
2018-12-14T03:38:23.399Z,93.09
2018-12-14T03:39:23.429Z,92.61
2018-12-14T03:40:23.521Z,91.45
2018-12-14T03:41:23.542Z,91.83
2018-12-14T03:42:23.574Z,91.74
2018-12-14T03:43:23.620Z,91.74
2018-12-14T03:44:23.660Z,91.74
2018-12-14T03:45:23.735Z,91.36
2018-12-14T03:46:23.767Z,91.16
2018-12-14T03:47:23.806Z,90.48
2018-12-14T03:48:23.883Z,90.20
2018-12-14T03:49:23.949Z,90.20
2018-12-14T03:50:23.946Z,91.36
2018-12-14T03:51:23.994Z,92.22
2018-12-14T03:52:24.044Z,92.90
2018-12-14T03:53:24.079Z,93.57
2018-12-14T03:54:24.181Z,94.82
2018-12-14T03:55:24.236Z,94.92
2018-12-14T03:56:24.283Z,95.11
2018-12-14T03:57:24.321Z,95.02
2018-12-14T03:58:24.310Z,95.40
2018-12-14T03:59:24.417Z,94.92
2018-12-14T04:00:24.437Z,94.54
2018-12-14T04:01:24.462Z,94.15
2018-12-14T04:02:24.510Z,93.66
2018-12-14T04:03:24.585Z,94.15
2018-12-14T04:04:24.595Z,94.06
2018-12-14T04:05:24.631Z,94.24
2018-12-14T04:06:24.699Z,93.48
2018-12-14T04:07:24.728Z,93.66
2018-12-14T04:08:24.818Z,93.38
2018-12-14T04:09:24.844Z,93.38
2018-12-14T04:10:24.860Z,93.38
2018-12-14T04:11:24.930Z,93.66
2018-12-14T04:12:24.975Z,93.48
2018-12-14T04:13:25.020Z,93.48
2018-12-14T04:14:25.077Z,93.66
2018-12-14T04:15:25.103Z,93.38
2018-12-14T04:16:25.168Z,93.57
2018-12-14T04:17:25.266Z,93.09
2018-12-14T04:18:25.269Z,92.61
2018-12-14T04:19:25.295Z,91.74
2018-12-14T04:20:25.353Z,91.69
2018-12-14T04:21:25.383Z,91.36
2018-12-14T04:22:25.422Z,90.92
2018-12-14T04:23:25.480Z,90.64
2018-12-14T04:24:25.524Z,89.86
2018-12-14T04:25:25.639Z,89.29
2018-12-14T04:26:25.620Z,89.39
2018-12-14T04:27:25.779Z,89.00
2018-12-14T04:28:25.708Z,88.71
2018-12-14T04:29:25.754Z,88.90
2018-12-14T04:30:25.858Z,88.04
2018-12-14T04:31:25.856Z,87.26
2018-12-14T04:32:25.925Z,87.07
2018-12-14T04:33:25.932Z,86.98
2018-12-14T04:34:26.004Z,86.40
2018-12-14T04:35:26.046Z,86.40
2018-12-14T04:36:26.094Z,86.21
2018-12-14T04:37:26.193Z,85.82
2018-12-14T04:38:26.189Z,85.53
2018-12-14T04:39:26.208Z,84.86
2018-12-14T04:40:26.276Z,84.95
2018-12-14T04:41:26.307Z,84.95
2018-12-14T04:42:26.410Z,84.47
2018-12-14T04:43:26.428Z,84.95
2018-12-14T04:44:26.511Z,83.89
2018-12-14T04:45:26.505Z,83.31
2018-12-14T04:46:26.538Z,83.31
2018-12-14T04:47:26.642Z,83.80
2018-12-14T04:48:26.648Z,83.70
2018-12-14T04:49:26.690Z,83.80
2018-12-14T04:50:26.728Z,83.03
2018-12-14T04:51:26.781Z,83.22
2018-12-14T04:52:26.847Z,83.22
2018-12-14T04:53:26.879Z,83.41
2018-12-14T04:54:26.969Z,83.41
2018-12-14T04:55:26.973Z,83.89
2018-12-14T04:56:27.005Z,83.61
2018-12-14T04:57:27.053Z,83.41
2018-12-14T04:58:27.110Z,83.70
2018-12-14T04:59:27.146Z,83.31
2018-12-14T05:00:27.197Z,83.12
2018-12-14T05:01:27.242Z,83.31
2018-12-14T05:02:27.289Z,83.61
2018-12-14T05:03:27.327Z,83.70
2018-12-14T05:04:27.380Z,83.22
2018-12-14T05:05:27.415Z,82.64
2018-12-14T05:06:27.481Z,82.06
2018-12-14T05:07:27.524Z,82.26
2018-12-14T05:08:27.561Z,82.35
2018-12-14T05:09:27.603Z,82.16
2018-12-14T05:10:27.662Z,81.54
2018-12-14T05:11:27.759Z,81.29
2018-12-14T05:12:27.794Z,81.16
2018-12-14T05:13:27.802Z,81.39
2018-12-14T05:14:27.841Z,81.29
2018-12-14T05:15:27.890Z,81.35
2018-12-14T05:16:27.928Z,81.25
2018-12-14T05:17:27.973Z,81.29
2018-12-14T05:18:28.035Z,80.38
2018-12-14T05:19:28.067Z,80.33
2018-12-14T05:20:28.118Z,79.85
2018-12-14T05:21:28.168Z,79.94
2018-12-14T05:22:28.212Z,80.23
2018-12-14T05:23:28.258Z,79.27
2018-12-14T05:24:28.314Z,79.17
2018-12-14T05:25:28.336Z,78.98
2018-12-14T05:26:29.048Z,78.94
2018-12-14T05:27:28.441Z,79.13
2018-12-14T05:28:28.500Z,79.33
2018-12-14T05:29:28.539Z,79.23
2018-12-14T05:30:28.587Z,78.94
2018-12-14T05:31:28.635Z,78.65
2018-12-14T05:32:28.729Z,78.27
2018-12-14T05:33:28.739Z,78.56
2018-12-14T05:34:28.796Z,78.36
2018-12-14T05:35:28.863Z,78.17
2018-12-14T05:36:28.908Z,78.36
2018-12-14T05:37:28.965Z,77.98
2018-12-14T05:38:28.949Z,77.78
2018-12-14T05:39:29.000Z,78.85
2018-12-14T05:40:29.052Z,79.13
2018-12-14T05:41:29.090Z,79.71
2018-12-14T05:42:29.152Z,79.71
2018-12-14T05:43:29.171Z,80.38
2018-12-14T05:44:29.315Z,81.63
2018-12-14T05:45:29.276Z,83.08
2018-12-14T05:46:29.316Z,82.41
2018-12-14T05:47:29.368Z,82.41
2018-12-14T05:48:29.410Z,86.69
2018-12-14T05:49:29.716Z,88.81
2018-12-14T05:50:29.556Z,88.42
2018-12-14T05:51:29.564Z,88.04
2018-12-14T05:52:29.603Z,87.46
2018-12-14T05:53:29.653Z,87.65
2018-12-14T05:54:29.690Z,90.64
2018-12-14T05:55:29.741Z,90.64
2018-12-14T05:56:29.796Z,89.77
2018-12-14T05:57:29.831Z,90.06
2018-12-14T05:58:29.925Z,89.96
2018-12-14T05:59:29.990Z,89.67
2018-12-14T06:00:29.970Z,90.06
2018-12-14T06:01:30.032Z,89.96
2018-12-14T06:02:30.071Z,91.60
2018-12-14T06:03:30.136Z,91.12
2018-12-14T06:04:30.155Z,90.34
2018-12-14T06:05:30.210Z,90.25
2018-12-14T06:06:30.247Z,89.86
2018-12-14T06:07:30.311Z,89.29
2018-12-14T06:08:30.346Z,88.81
2018-12-14T06:09:30.396Z,88.61
2018-12-14T06:10:30.494Z,88.42
2018-12-14T06:11:30.476Z,88.04
2018-12-14T06:12:30.585Z,87.12
2018-12-14T06:13:30.585Z,87.41
2018-12-14T06:14:30.707Z,86.65
2018-12-14T06:15:30.678Z,86.83
2018-12-14T06:16:30.710Z,85.97
2018-12-14T06:17:30.755Z,83.66
2018-12-14T06:18:30.799Z,83.75
2018-12-14T06:19:30.848Z,83.56
2018-12-14T06:20:30.892Z,83.85
2018-12-14T06:21:30.951Z,83.66
2018-12-14T06:22:30.989Z,83.85
2018-12-14T06:23:31.042Z,84.62
2018-12-14T06:24:31.091Z,84.62
2018-12-14T06:25:31.137Z,84.53
2018-12-14T06:26:31.170Z,83.95
2018-12-14T06:27:31.240Z,83.56
2018-12-14T06:28:31.271Z,83.66
2018-12-14T06:29:31.325Z,83.95
2018-12-14T06:30:31.386Z,83.47
2018-12-14T06:31:31.419Z,83.18
2018-12-14T06:32:31.511Z,82.89
2018-12-14T06:33:31.513Z,83.18
2018-12-14T06:34:31.552Z,83.37
2018-12-14T06:35:31.604Z,83.28
2018-12-14T06:36:31.648Z,82.60
2018-12-14T06:37:31.936Z,82.89
2018-12-14T06:38:31.743Z,82.41
2018-12-14T06:39:31.777Z,82.31
2018-12-14T06:40:31.822Z,82.79
2018-12-14T06:41:31.919Z,82.41
2018-12-14T06:42:31.940Z,82.70
2018-12-14T06:43:31.963Z,81.79
2018-12-14T06:44:32.025Z,81.93
2018-12-14T06:45:32.058Z,81.83
2018-12-14T06:46:32.099Z,81.02
2018-12-14T06:47:32.142Z,81.06
2018-12-14T06:48:32.446Z,80.77
2018-12-14T06:49:32.303Z,80.00
2018-12-14T06:50:32.326Z,80.38
2018-12-14T06:51:32.330Z,80.83
2018-12-14T06:52:32.389Z,81.25
2018-12-14T06:53:32.431Z,81.93
2018-12-14T06:54:32.486Z,83.28
2018-12-14T06:55:32.578Z,83.75
2018-12-14T06:56:32.566Z,87.22
2018-12-14T06:57:32.624Z,87.60
2018-12-14T06:58:32.643Z,89.24
2018-12-14T06:59:33.018Z,91.36
2018-12-14T07:00:32.803Z,91.55
2018-12-14T07:01:32.796Z,91.36
2018-12-14T07:02:32.840Z,91.17
2018-12-14T07:03:32.903Z,91.07
2018-12-14T07:04:32.941Z,90.97
2018-12-14T07:05:32.995Z,92.03
2018-12-14T07:06:33.032Z,92.71
2018-12-14T07:07:33.156Z,93.00
2018-12-14T07:08:33.126Z,92.13
2018-12-14T07:09:33.178Z,91.65
2018-12-14T07:10:33.217Z,91.75
2018-12-14T07:11:33.248Z,91.94
2018-12-14T07:12:33.310Z,93.19
2018-12-14T07:13:33.341Z,94.25
2018-12-14T07:14:33.401Z,94.92
2018-12-14T07:15:33.439Z,95.40
2018-12-14T07:16:33.483Z,96.22
2018-12-14T07:17:33.591Z,96.08
2018-12-14T07:18:33.580Z,95.60
2018-12-14T07:19:33.679Z,95.89
2018-12-14T07:20:33.691Z,95.89
2018-12-14T07:21:33.710Z,95.02
2018-12-14T07:22:33.776Z,95.12
2018-12-14T07:23:33.859Z,93.67
2018-12-14T07:24:33.863Z,93.00
2018-12-14T07:25:34.166Z,93.29
2018-12-14T07:26:33.939Z,93.48
2018-12-14T07:27:34.008Z,93.00
2018-12-14T07:28:34.085Z,92.61
2018-12-14T07:29:34.095Z,92.03
2018-12-14T07:30:34.197Z,91.94
2018-12-14T07:31:34.170Z,91.17
2018-12-14T07:32:34.224Z,90.40
2018-12-14T07:33:34.272Z,90.01
2018-12-14T07:34:34.323Z,90.20
2018-12-14T07:35:34.422Z,88.95
2018-12-14T07:36:34.422Z,88.71
2018-12-14T07:37:34.505Z,88.43
2018-12-14T07:38:34.492Z,88.04
2018-12-14T07:39:34.541Z,87.51
2018-12-14T07:40:34.638Z,85.93
2018-12-14T07:41:34.635Z,85.06
2018-12-14T07:42:34.710Z,84.87
2018-12-14T07:43:34.742Z,84.67
2018-12-14T07:44:34.860Z,84.10
2018-12-14T07:45:34.831Z,84.39
2018-12-14T07:46:34.866Z,84.58
2018-12-14T07:47:34.926Z,84.67
2018-12-14T07:48:34.959Z,84.48
2018-12-14T07:49:35.015Z,84.29
2018-12-14T07:50:35.067Z,84.19
2018-12-14T07:51:35.345Z,84.48
2018-12-14T07:52:35.161Z,84.29
2018-12-14T07:53:35.202Z,84.29
2018-12-14T07:54:35.238Z,84.48
2018-12-14T07:55:35.268Z,83.42
2018-12-14T07:56:35.333Z,84.00
2018-12-14T07:57:35.385Z,84.29
2018-12-14T07:58:35.426Z,84.67
2018-12-14T07:59:35.474Z,84.97
2018-12-14T08:00:35.507Z,85.10
2018-12-14T08:01:35.574Z,86.35
2018-12-14T08:02:35.624Z,86.55
2018-12-14T08:03:35.652Z,88.38
2018-12-14T08:04:35.695Z,88.76
2018-12-14T08:05:35.728Z,88.67
2018-12-14T08:06:35.803Z,88.47
2018-12-14T08:07:35.899Z,88.67
2018-12-14T08:08:35.885Z,87.99
2018-12-14T08:09:35.941Z,87.51
2018-12-14T08:10:35.981Z,87.03
2018-12-14T08:11:36.041Z,87.22
2018-12-14T08:12:36.073Z,87.03
2018-12-14T08:13:36.099Z,86.55
2018-12-14T08:14:36.169Z,86.16
2018-12-14T08:15:36.207Z,86.26
2018-12-14T08:16:36.290Z,86.35
2018-12-14T08:17:36.301Z,86.45
2018-12-14T08:18:36.400Z,86.22
2018-12-14T08:19:36.432Z,86.12
2018-12-14T08:20:36.439Z,86.26
2018-12-14T08:21:36.478Z,86.93
2018-12-14T08:22:36.542Z,88.04
2018-12-14T08:23:36.828Z,87.95
2018-12-14T08:24:36.630Z,87.32
2018-12-14T08:25:36.672Z,86.74
2018-12-14T08:26:36.721Z,86.83
2018-12-14T08:27:36.821Z,86.65
2018-12-14T08:28:36.803Z,86.65
2018-12-14T08:29:36.899Z,86.45
2018-12-14T08:30:36.888Z,86.35
2018-12-14T08:31:36.949Z,86.35
2018-12-14T08:32:37.026Z,86.55
2018-12-14T08:33:37.046Z,86.16
2018-12-14T08:34:37.076Z,85.87
2018-12-14T08:35:37.131Z,86.16
2018-12-14T08:36:37.184Z,86.16
2018-12-14T08:37:37.241Z,86.07
2018-12-14T08:38:37.267Z,86.35
2018-12-14T08:39:37.338Z,86.26
2018-12-14T08:40:37.406Z,86.35
2018-12-14T08:41:38.012Z,86.07
2018-12-14T08:42:37.485Z,85.58
2018-12-14T08:43:41.445Z,85.68
2018-12-14T08:44:37.548Z,85.58
2018-12-14T08:45:37.586Z,85.58
2018-12-14T08:46:37.641Z,86.16
2018-12-14T08:47:37.681Z,88.28
2018-12-14T08:48:37.720Z,89.58
2018-12-14T08:49:37.765Z,90.44
2018-12-14T08:50:37.832Z,91.21
2018-12-14T08:51:37.873Z,91.31
2018-12-14T08:52:37.926Z,91.12
2018-12-14T08:53:37.990Z,91.12
2018-12-14T08:54:37.996Z,91.31
2018-12-14T08:55:38.041Z,90.92
2018-12-14T08:56:38.100Z,91.12
2018-12-14T08:57:38.177Z,91.31
2018-12-14T08:58:38.239Z,91.12
2018-12-14T08:59:38.239Z,91.21
2018-12-14T09:00:38.298Z,91.21
2018-12-14T09:01:38.383Z,91.31
2018-12-14T09:02:38.388Z,91.02
2018-12-14T09:03:38.426Z,90.64
2018-12-14T09:04:38.533Z,91.16
2018-12-14T09:05:38.528Z,91.26
2018-12-14T09:06:38.628Z,91.36
2018-12-14T09:07:38.655Z,91.64
2018-12-14T09:08:38.676Z,91.93
2018-12-14T09:09:38.701Z,92.99
2018-12-14T09:10:38.759Z,92.90
2018-12-14T09:11:38.791Z,93.57
2018-12-14T09:12:38.845Z,94.82
2018-12-14T09:13:38.896Z,95.93
2018-12-14T09:14:38.937Z,96.41
2018-12-14T09:15:39.002Z,98.29
2018-12-14T09:16:39.042Z,99.99
2018-12-14T09:17:39.098Z,99.99
2018-12-14T09:18:39.125Z,99.99
2018-12-14T09:19:39.176Z,99.99
2018-12-14T09:20:39.229Z,99.99
2018-12-14T09:21:39.279Z,99.99
2018-12-14T09:22:39.312Z,99.99
2018-12-14T09:23:39.366Z,99.99
2018-12-14T09:24:39.398Z,99.99
2018-12-14T09:25:39.479Z,99.99
2018-12-14T09:26:39.576Z,99.99
2018-12-14T09:27:39.572Z,99.99
2018-12-14T09:28:39.587Z,99.99
2018-12-14T09:29:39.660Z,99.99
2018-12-14T09:30:42.654Z,99.99
2018-12-14T09:31:39.734Z,99.99
2018-12-14T09:32:39.777Z,99.99
2018-12-14T09:33:39.858Z,99.99
2018-12-14T09:34:39.869Z,99.99
2018-12-14T09:35:39.942Z,99.99
2018-12-14T09:36:40.005Z,99.99
2018-12-14T09:37:40.042Z,99.99
2018-12-14T09:38:40.089Z,99.99
2018-12-14T09:39:40.133Z,99.99
2018-12-14T09:40:40.187Z,99.99
2018-12-14T09:41:40.210Z,99.99
2018-12-14T09:42:40.266Z,99.99
2018-12-14T09:43:40.316Z,99.99
2018-12-14T09:44:40.369Z,99.99
2018-12-14T09:45:40.400Z,99.99
2018-12-14T09:46:40.459Z,99.99
2018-12-14T09:47:40.570Z,99.99
2018-12-14T09:48:40.552Z,99.99
2018-12-14T09:49:40.600Z,99.99
2018-12-14T09:50:40.702Z,99.99
2018-12-14T09:51:40.713Z,99.99
2018-12-14T09:52:40.746Z,99.99
2018-12-14T09:53:40.809Z,99.99
2018-12-14T09:54:40.839Z,99.99
2018-12-14T09:55:40.893Z,99.99
2018-12-14T09:56:40.935Z,99.99
2018-12-14T09:57:40.972Z,99.99
2018-12-14T09:58:41.040Z,99.99
2018-12-14T09:59:41.114Z,99.99
2018-12-14T10:00:41.142Z,99.99
2018-12-14T10:01:41.178Z,99.99
2018-12-14T10:02:41.239Z,99.99
2018-12-14T10:03:41.285Z,99.99
2018-12-14T10:04:41.358Z,99.99
2018-12-14T10:05:41.384Z,99.99
2018-12-14T10:06:41.426Z,99.99
2018-12-14T10:07:46.846Z,99.99
2018-12-14T10:08:41.515Z,99.99
2018-12-14T10:09:41.633Z,99.99
2018-12-14T10:10:41.619Z,99.99
2018-12-14T10:11:41.737Z,99.99
2018-12-14T10:12:41.743Z,99.99
2018-12-14T10:13:41.772Z,99.99
2018-12-14T10:14:41.820Z,99.99
2018-12-14T10:15:41.874Z,99.99
2018-12-14T10:16:41.967Z,99.99
2018-12-14T10:17:41.981Z,98.93
2018-12-14T10:18:42.016Z,89.04
2018-12-14T10:19:42.089Z,85.61
2018-12-14T10:20:42.116Z,81.45
2018-12-14T10:21:42.171Z,77.48
2018-12-14T10:22:42.241Z,75.40
2018-12-14T10:23:42.269Z,73.42
2018-12-14T10:24:42.350Z,71.89
2018-12-14T10:25:42.418Z,70.09
2018-12-14T10:26:42.493Z,67.77
2018-12-14T10:27:42.498Z,66.20
2018-12-14T10:28:42.548Z,66.44
2018-12-14T10:29:42.624Z,68.07
2018-12-14T10:30:42.715Z,70.22
2018-12-14T10:31:42.719Z,70.22
2018-12-14T10:32:42.770Z,70.16
2018-12-14T10:33:42.835Z,68.04
2018-12-14T10:34:42.906Z,66.50
2018-12-14T10:35:42.990Z,65.81
2018-12-14T10:36:42.999Z,66.33
2018-12-14T10:37:43.057Z,66.40
2018-12-14T10:38:43.115Z,64.24
2018-12-14T10:39:43.235Z,64.79
2018-12-14T10:40:43.246Z,64.33
2018-12-14T10:41:43.289Z,63.94
2018-12-14T10:42:43.393Z,63.81
2018-12-14T10:43:43.410Z,62.02
2018-12-14T10:44:43.460Z,60.60
2018-12-14T10:45:43.783Z,58.43
2018-12-14T10:46:43.572Z,55.05
2018-12-14T10:47:43.652Z,56.43
2018-12-14T10:48:43.691Z,56.40
2018-12-14T10:49:43.770Z,56.73
2018-12-14T10:50:43.813Z,56.56
2018-12-14T10:51:43.880Z,54.88
2018-12-14T10:52:43.929Z,55.54
2018-12-14T10:53:43.985Z,56.04
2018-12-14T10:54:44.068Z,57.91
2018-12-14T10:55:44.112Z,54.16
2018-12-14T10:56:44.200Z,54.53
2018-12-14T10:57:44.234Z,56.87
2018-12-14T10:58:44.301Z,58.45
2018-12-14T10:59:44.339Z,54.93
2018-12-14T11:00:44.427Z,55.12
2018-12-14T11:01:44.482Z,54.26
2018-12-14T11:02:44.586Z,53.86
2018-12-14T11:03:44.597Z,53.37
2018-12-14T11:04:44.664Z,53.47
2018-12-14T11:05:44.715Z,54.82
2018-12-14T11:06:44.759Z,54.43
2018-12-14T11:07:44.821Z,53.32
2018-12-14T11:08:44.886Z,53.86
2018-12-14T11:09:45.001Z,54.28
2018-12-14T11:10:45.071Z,52.53
2018-12-14T11:11:45.078Z,51.99
2018-12-14T11:12:45.130Z,51.03
2018-12-14T11:13:45.195Z,50.12
2018-12-14T11:14:45.313Z,51.52
2018-12-14T11:15:45.309Z,51.05
2018-12-14T11:16:45.378Z,52.06
2018-12-14T11:17:45.742Z,51.84
2018-12-14T11:18:45.505Z,51.07
2018-12-14T11:19:45.582Z,51.13
2018-12-14T11:20:45.666Z,52.86
2018-12-14T11:21:45.724Z,51.10
2018-12-14T11:22:45.739Z,50.93
2018-12-14T11:23:45.800Z,49.77
2018-12-14T11:24:45.911Z,50.95
2018-12-14T11:25:45.940Z,49.74
2018-12-14T11:26:45.997Z,50.90
2018-12-14T11:27:46.037Z,50.71
2018-12-14T11:28:46.125Z,49.89
2018-12-14T11:29:46.223Z,50.56
2018-12-14T11:30:46.232Z,50.93
2018-12-14T11:31:46.292Z,51.77
2018-12-14T11:32:46.365Z,50.21
2018-12-14T11:33:46.717Z,49.94
2018-12-14T11:34:46.470Z,49.15
2018-12-14T11:35:46.547Z,49.47
2018-12-14T11:36:46.619Z,48.18
2018-12-14T11:37:46.684Z,47.99
2018-12-14T11:38:46.738Z,48.26
2018-12-14T11:39:46.814Z,49.02
2018-12-14T11:40:46.847Z,48.55
2018-12-14T11:41:46.915Z,48.14
2018-12-14T11:42:47.040Z,49.25
2018-12-14T11:43:47.029Z,48.08
2018-12-14T11:44:47.367Z,46.95
2018-12-14T11:45:47.170Z,48.61
2018-12-14T11:46:47.217Z,49.05
2018-12-14T11:47:47.277Z,49.33
2018-12-14T11:48:47.382Z,49.38
2018-12-14T11:49:48.545Z,50.98
2018-12-14T11:50:47.456Z,49.60
2018-12-14T11:51:47.528Z,49.50
2018-12-14T11:52:47.584Z,49.92
2018-12-14T11:53:47.701Z,50.26
2018-12-14T11:54:47.722Z,49.60
2018-12-14T11:55:47.781Z,50.04
2018-12-14T11:56:47.841Z,48.86
2018-12-14T11:57:47.950Z,50.93
2018-12-14T11:58:47.953Z,50.63
2018-12-14T11:59:48.072Z,50.66
2018-12-14T12:00:48.087Z,49.01
2018-12-14T12:01:48.155Z,48.58
2018-12-14T12:02:48.196Z,49.79
2018-12-14T12:03:48.256Z,47.84
2018-12-14T12:04:48.323Z,48.24
2018-12-14T12:05:48.377Z,48.55
2018-12-14T12:06:48.453Z,48.11
2018-12-14T12:07:48.517Z,46.45
2018-12-14T12:08:48.582Z,46.25
2018-12-14T12:09:48.719Z,45.43
2018-12-14T12:10:48.719Z,46.33
2018-12-14T12:11:48.764Z,46.42
2018-12-14T12:12:48.838Z,46.74
2018-12-14T12:13:48.879Z,46.18
2018-12-14T12:14:48.965Z,47.02
2018-12-14T12:15:49.065Z,46.94
2018-12-14T12:16:49.114Z,47.06
2018-12-14T12:17:49.779Z,46.69
2018-12-14T12:18:49.206Z,45.45
2018-12-14T12:19:49.273Z,44.98
2018-12-14T12:20:49.324Z,45.56
2018-12-14T12:21:49.411Z,46.72
2018-12-14T12:22:49.473Z,46.57
2018-12-14T12:23:55.090Z,45.50
2018-12-14T12:24:49.573Z,44.31
2018-12-14T12:25:49.637Z,45.31
2018-12-14T12:26:49.725Z,45.19
2018-12-14T12:27:49.760Z,45.39
2018-12-14T12:28:49.833Z,47.31
2018-12-14T12:29:49.903Z,46.00
2018-12-14T12:30:49.967Z,44.57
2018-12-14T12:31:50.024Z,43.70
2018-12-14T12:32:50.366Z,43.35
2018-12-14T12:33:50.155Z,41.53
2018-12-14T12:34:50.223Z,41.77
2018-12-14T12:35:50.272Z,42.49
2018-12-14T12:36:50.350Z,43.95
2018-12-14T12:37:50.405Z,44.07
2018-12-14T12:38:50.463Z,44.09
2018-12-14T12:39:50.550Z,43.40
2018-12-14T12:40:50.611Z,42.13
2018-12-14T12:41:50.700Z,43.71
2018-12-14T12:42:50.741Z,44.97
2018-12-14T12:43:50.795Z,46.01
2018-12-14T12:44:50.854Z,45.52
2018-12-14T12:45:50.920Z,46.88
2018-12-14T12:46:51.052Z,45.04
2018-12-14T12:47:51.049Z,44.76
2018-12-14T12:48:51.104Z,43.22
2018-12-14T12:49:51.197Z,41.55
2018-12-14T12:50:51.241Z,40.82
2018-12-14T12:51:51.305Z,41.12
2018-12-14T12:52:51.361Z,41.60